Time;durP1;ratioP1;P1;durP2;ratioP2;P2;SDS_P1;SDS_P2;PMS_P1;PMS_P2;Temp;Humidity;BMP_temperature;BMP_pressure;BME280_temperature;BME280_humidity;BME280_pressure;Samples;Min_cycle;Max_cycle;Signal;HPM_P1;HPM_P2
2023/01/06 00:01:05;;;;;;;8.90;3.97;;;;;;;9.32;99.62;100772.22;5015097;28;20230;-81
2023/01/06 00:03:31;;;;;;;5.87;3.90;;;;;;;9.31;99.79;100760.06;5014944;28;20209;-81
2023/01/06 00:06:00;;;;;;;6.90;3.90;;;;;;;9.34;99.31;100767.84;5015691;28;20207;-79
2023/01/06 00:08:27;;;;;;;7.70;3.80;;;;;;;9.36;99.34;100770.47;5015234;28;20255;-81
2023/01/06 00:10:53;;;;;;;7.90;4.60;;;;;;;9.40;99.51;100765.19;5020065;28;20300;-82
2023/01/06 00:13:20;;;;;;;7.07;3.93;;;;;;;9.41;99.19;100768.66;5014374;28;20682;-82
2023/01/06 00:15:46;;;;;;;9.83;4.53;;;;;;;9.41;98.95;100766.06;5014735;28;20249;-81
2023/01/06 00:18:13;;;;;;;10.10;3.63;;;;;;;9.37;99.49;100764.34;5015314;28;20755;-81
2023/01/06 00:20:39;;;;;;;8.83;4.27;;;;;;;9.39;99.36;100760.00;5015842;28;20280;-81
2023/01/06 00:23:07;;;;;;;10.93;5.13;;;;;;;9.34;99.35;100758.28;5018765;28;20210;-81
2023/01/06 00:25:33;;;;;;;9.83;4.40;;;;;;;9.40;99.52;100746.09;5018777;28;20853;-81
2023/01/06 00:27:59;;;;;;;5.87;4.37;;;;;;;9.40;100.00;100739.16;5018368;28;20614;-82
2023/01/06 00:30:26;;;;;;;7.53;4.47;;;;;;;9.43;100.00;100739.09;5018328;28;20231;-82
2023/01/06 00:32:52;;;;;;;6.47;4.17;;;;;;;9.41;100.00;100733.03;5019082;28;20268;-81
2023/01/06 00:35:18;;;;;;;7.50;4.17;;;;;;;9.32;100.00;100694.06;5018501;28;20600;-82
2023/01/06 00:37:45;;;;;;;7.60;4.00;;;;;;;9.28;100.00;100677.59;5018856;28;20238;-81
2023/01/06 00:40:12;;;;;;;4.37;3.90;;;;;;;9.34;100.00;100672.31;5024480;28;20276;-81
2023/01/06 00:42:39;;;;;;;5.93;4.50;;;;;;;9.38;100.00;100662.75;5018427;28;20245;-81
2023/01/06 00:45:06;;;;;;;7.03;3.73;;;;;;;9.42;100.00;100664.44;5017908;28;20645;-81
2023/01/06 00:47:32;;;;;;;4.57;4.17;;;;;;;9.42;100.00;100660.97;5018292;28;20580;-79
2023/01/06 00:49:58;;;;;;;5.40;4.17;;;;;;;9.40;100.00;100660.97;5018679;28;20265;-82
2023/01/06 00:52:25;;;;;;;5.20;3.13;;;;;;;9.39;100.00;100669.66;5018595;28;20210;-82
2023/01/06 00:54:51;;;;;;;3.47;2.93;;;;;;;9.43;100.00;100663.53;5018303;28;20207;-81
2023/01/06 00:57:19;;;;;;;7.27;4.33;;;;;;;9.46;100.00;100673.94;5018133;28;20675;-81
2023/01/06 00:59:45;;;;;;;5.03;4.43;;;;;;;9.43;100.00;100671.34;5018252;28;20713;-81
2023/01/06 01:02:11;;;;;;;4.63;3.77;;;;;;;9.41;100.00;100662.69;5018270;28;20207;-81
2023/01/06 01:04:38;;;;;;;4.70;3.63;;;;;;;9.40;100.00;100662.72;5018639;28;20234;-82
2023/01/06 01:07:04;;;;;;;5.67;3.67;;;;;;;9.40;100.00;100658.38;5018162;28;20276;-82
2023/01/06 01:09:31;;;;;;;4.97;3.83;;;;;;;9.41;100.00;100664.44;5024014;28;20245;-80
2023/01/06 01:12:10;;;;;;;4.40;3.87;;;;;;;9.41;100.00;100673.13;5017577;28;20201;-82
2023/01/06 01:14:41;;;;;;;6.57;3.73;;;;;;;9.45;100.00;100669.59;5018570;28;20298;-83
2023/01/06 01:17:08;;;;;;;6.90;3.60;;;;;;;9.40;100.00;100675.75;5018816;28;20215;-81
2023/01/06 01:19:35;;;;;;;4.23;3.60;;;;;;;9.38;100.00;100669.69;5018228;28;20236;-80
2023/01/06 01:22:01;;;;;;;5.43;3.23;;;;;;;9.40;100.00;100667.94;5017736;28;20215;-82
2023/01/06 01:24:28;;;;;;;5.47;3.90;;;;;;;9.40;100.00;100657.53;5017852;28;20230;-82
2023/01/06 01:26:54;;;;;;;4.03;3.60;;;;;;;9.31;100.00;100651.50;5018211;28;20218;-81
2023/01/06 01:29:21;;;;;;;7.70;4.93;;;;;;;9.34;100.00;100648.88;5017852;28;20226;-80
2023/01/06 01:31:49;;;;;;;4.87;4.37;;;;;;;9.34;100.00;100648.88;5016531;28;20207;-82
2023/01/06 01:34:17;;;;;;;5.17;3.97;;;;;;;9.36;100.00;100648.00;5017441;28;20207;-80
2023/01/06 01:36:45;;;;;;;6.20;3.87;;;;;;;9.31;100.00;100628.06;5017524;28;20210;-78
2023/01/06 01:39:12;;;;;;;4.40;3.93;;;;;;;9.38;100.00;100625.41;5021475;28;20264;-79
2023/01/06 01:41:39;;;;;;;4.10;3.70;;;;;;;9.34;100.00;100628.03;5018151;28;20195;-81
2023/01/06 01:44:39;;;;;;;3.73;3.40;;;;;;;9.42;100.00;100619.28;5017131;28;20207;-81
2023/01/06 01:47:06;;;;;;;4.27;3.27;;;;;;;9.43;100.00;100628.81;5015871;28;20209;-80
2023/01/06 01:49:36;;;;;;;4.17;3.20;;;;;;;9.43;100.00;100627.06;5017016;28;20802;-81
2023/01/06 01:52:03;;;;;;;6.07;2.93;;;;;;;9.44;100.00;100622.75;5016688;28;20705;-79
2023/01/06 01:54:32;;;;;;;4.13;3.10;;;;;;;9.43;100.00;100624.47;5016774;28;20229;-80
2023/01/06 01:57:01;;;;;;;3.43;3.13;;;;;;;9.43;100.00;100615.78;5016338;28;20207;-79
2023/01/06 01:59:31;;;;;;;5.63;2.90;;;;;;;9.43;100.00;100619.25;5017440;28;20259;-79
2023/01/06 02:01:57;;;;;;;5.23;3.30;;;;;;;9.42;100.00;100616.69;5016597;28;20673;-81
2023/01/06 02:04:27;;;;;;;3.53;2.50;;;;;;;9.47;100.00;100614.88;5016211;28;20210;-80
2023/01/06 02:06:54;;;;;;;3.53;2.50;;;;;;;9.48;100.00;100617.47;5016881;28;20206;-79
2023/01/06 02:09:26;;;;;;;4.07;3.00;;;;;;;9.48;100.00;100614.84;5020728;28;20246;-80
2023/01/06 02:11:52;;;;;;;3.90;2.97;;;;;;;9.50;100.00;100601.81;5015968;28;20269;-81
2023/01/06 02:14:21;;;;;;;2.63;2.43;;;;;;;9.41;100.00;100591.50;5016718;28;20740;-81
2023/01/06 02:17:04;;;;;;;3.17;2.70;;;;;;;9.46;100.00;100585.34;5016672;28;20206;-80
2023/01/06 02:19:59;;;;;;;3.10;2.73;;;;;;;9.39;100.00;100586.28;5016200;28;20253;-80
2023/01/06 02:22:42;;;;;;;2.87;2.67;;;;;;;9.27;100.00;100591.66;5016847;28;20744;-80
2023/01/06 02:25:28;;;;;;;2.77;2.40;;;;;;;9.24;100.00;100587.34;5016542;28;20223;-80
2023/01/06 02:28:18;;;;;;;5.30;2.70;;;;;;;9.21;100.00;100578.69;5016071;28;20210;-81
2023/01/06 02:31:12;;;;;;;3.53;2.33;;;;;;;9.19;100.00;100576.09;5016721;28;20230;-78
2023/01/06 02:33:45;;;;;;;3.70;2.30;;;;;;;9.14;100.00;100583.13;5016439;28;20635;-79
2023/01/06 02:36:27;;;;;;;3.23;2.30;;;;;;;9.17;100.00;100572.66;5016422;28;20252;-81
2023/01/06 02:39:10;;;;;;;4.77;2.13;;;;;;;9.15;100.00;100571.81;5017403;28;20652;-81
2023/01/06 02:41:42;;;;;;;2.17;1.90;;;;;;;9.19;100.00;100578.72;5018033;28;20256;-82
2023/01/06 02:44:19;;;;;;;2.70;2.03;;;;;;;9.14;100.00;100570.97;5016424;28;20213;-82
2023/01/06 02:47:04;;;;;;;2.70;1.97;;;;;;;9.28;100.00;100567.34;5016084;28;20233;-82
2023/01/06 02:49:41;;;;;;;5.43;2.07;;;;;;;9.25;100.00;100563.00;5016728;28;20283;-82
2023/01/06 02:52:13;;;;;;;3.20;1.93;;;;;;;9.29;100.00;100569.06;5015643;28;20573;-81
2023/01/06 02:54:44;;;;;;;1.63;1.50;;;;;;;9.26;100.00;100576.91;5015724;28;20684;-81
2023/01/06 02:57:20;;;;;;;1.83;1.67;;;;;;;9.26;100.00;100572.56;5016179;28;20210;-81
2023/01/06 02:59:53;;;;;;;3.30;1.90;;;;;;;9.29;100.00;100571.66;5015382;28;20655;-81
2023/01/06 03:02:22;;;;;;;4.83;1.80;;;;;;;9.35;100.00;100574.19;5015899;28;20211;-82
2023/01/06 03:04:51;;;;;;;1.90;1.73;;;;;;;9.39;100.00;100569.81;5015242;28;20235;-82
2023/01/06 03:07:21;;;;;;;2.67;1.50;;;;;;;9.38;100.00;100568.97;5015431;28;20214;-83
2023/01/06 03:09:53;;;;;;;3.80;1.73;;;;;;;9.43;100.00;100569.75;5021367;28;20245;-80
2023/01/06 03:12:27;;;;;;;1.53;1.30;;;;;;;9.45;100.00;100564.53;5015481;28;20230;-80
2023/01/06 03:14:55;;;;;;;1.70;1.60;;;;;;;9.46;100.00;100566.25;5015621;28;20202;-81
2023/01/06 03:17:23;;;;;;;1.77;1.67;;;;;;;9.50;100.00;100552.31;5015896;28;20211;-81
2023/01/06 03:19:50;;;;;;;1.60;1.30;;;;;;;9.47;100.00;100558.41;5015172;28;20296;-81
2023/01/06 03:22:17;;;;;;;3.50;1.43;;;;;;;9.33;100.00;100550.75;5015862;28;20221;-81
2023/01/06 03:24:45;;;;;;;1.80;1.27;;;;;;;9.42;100.00;100557.63;5015547;28;20206;-81
2023/01/06 03:27:11;;;;;;;1.83;1.20;;;;;;;9.46;100.00;100559.28;5015658;28;20268;-81
2023/01/06 03:29:38;;;;;;;1.63;1.50;;;;;;;9.44;100.00;100547.19;5015852;28;20234;-81
2023/01/06 03:32:11;;;;;;;2.70;1.33;;;;;;;9.42;100.00;100560.22;5015432;28;20203;-79
2023/01/06 03:34:55;;;;;;;1.40;1.30;;;;;;;9.45;100.00;100559.31;5015764;28;20242;-80
2023/01/06 03:37:28;;;;;;;3.43;1.73;;;;;;;9.52;100.00;100558.38;5015326;28;20262;-79
2023/01/06 03:40:05;;;;;;;3.27;1.40;;;;;;;9.56;100.00;100565.25;5021085;28;20230;-81
2023/01/06 03:45:35;;;;;;;1.90;1.60;;;;;;;9.52;100.00;100579.22;5010029;28;20286;-81
2023/01/06 03:48:08;;;;;;;2.40;1.67;;;;;;;9.53;100.00;100586.13;4993977;28;20234;-81
2023/01/06 03:50:40;;;;;;;2.97;2.63;;;;;;;9.59;100.00;100574.78;4995116;28;20227;-81
2023/01/06 03:53:17;;;;;;;3.13;1.50;;;;;;;9.59;100.00;100583.44;5004105;28;20219;-80
2023/01/06 03:55:48;;;;;;;4.40;1.43;;;;;;;9.60;100.00;100564.34;5006391;28;20246;-80
2023/01/06 03:58:16;;;;;;;3.03;1.57;;;;;;;9.57;100.00;100561.75;5007630;28;20258;-81
2023/01/06 04:00:43;;;;;;;3.67;1.53;;;;;;;9.63;100.00;100561.69;5008718;28;20301;-79
2023/01/06 04:03:13;;;;;;;2.10;1.57;;;;;;;9.64;100.00;100567.78;5006693;28;20258;-80
2023/01/06 04:05:41;;;;;;;1.73;1.63;;;;;;;9.68;100.00;100577.28;5013373;28;20344;-81
2023/01/06 04:08:07;;;;;;;2.70;1.50;;;;;;;9.64;100.00;100592.06;5018771;28;20237;-84
2023/01/06 04:10:34;;;;;;;1.40;1.30;;;;;;;9.60;100.00;100598.22;5024110;28;20265;-83
2023/01/06 04:12:59;;;;;;;1.70;1.60;;;;;;;9.72;100.00;100582.41;5018378;28;20676;-80
2023/01/06 04:15:28;;;;;;;1.87;1.70;;;;;;;9.73;100.00;100591.09;5018833;28;20261;-80
2023/01/06 04:17:54;;;;;;;1.50;1.40;;;;;;;9.80;100.00;100615.34;5017964;28;20207;-80
2023/01/06 04:20:24;;;;;;;2.37;1.40;;;;;;;9.76;100.00;100619.75;5017737;28;20246;-79
2023/01/06 04:22:52;;;;;;;1.53;1.40;;;;;;;9.84;100.00;100606.59;5018343;28;20210;-78
2023/01/06 04:25:19;;;;;;;1.37;1.27;;;;;;;9.90;99.99;100606.53;5018596;28;20281;-80
2023/01/06 04:27:45;;;;;;;1.90;1.20;;;;;;;9.83;99.75;100602.25;5017719;28;20690;-80
2023/01/06 04:30:12;;;;;;;2.50;1.70;;;;;;;9.79;99.23;100606.69;5017494;28;20667;-80
2023/01/06 04:32:38;;;;;;;2.30;1.20;;;;;;;9.80;99.30;100608.38;5017812;28;20589;-80
2023/01/06 04:35:05;;;;;;;1.50;1.10;;;;;;;9.81;99.11;100606.63;5018133;28;20206;-79
2023/01/06 04:37:32;;;;;;;1.53;1.03;;;;;;;9.85;98.60;100608.31;5017473;28;20710;-80
2023/01/06 04:39:59;;;;;;;2.30;1.10;;;;;;;9.80;98.16;100623.16;5022892;28;20292;-80
2023/01/06 04:42:26;;;;;;;3.03;1.30;;;;;;;9.80;98.02;100623.16;5017384;28;20206;-80
2023/01/06 04:44:52;;;;;;;1.37;1.00;;;;;;;9.81;98.24;100625.75;5017321;28;20269;-80
2023/01/06 04:47:19;;;;;;;2.20;0.90;;;;;;;9.84;98.42;100606.59;5017290;28;20226;-79
2023/01/06 04:49:45;;;;;;;1.60;1.23;;;;;;;9.89;98.01;100616.09;5017394;28;20253;-80
2023/01/06 04:52:11;;;;;;;2.93;1.13;;;;;;;9.77;97.58;100624.06;5017577;28;20261;-80
2023/01/06 04:54:38;;;;;;;2.03;1.20;;;;;;;9.82;97.64;100616.19;5017578;28;20257;-80
2023/01/06 04:57:05;;;;;;;2.00;1.10;;;;;;;9.69;97.43;100626.78;5017547;28;20209;-80
2023/01/06 04:59:31;;;;;;;3.20;1.50;;;;;;;9.81;97.58;100622.28;5018366;28;20658;-80
2023/01/06 05:01:58;;;;;;;2.10;1.30;;;;;;;9.66;96.99;100625.94;5017868;28;20264;-80
2023/01/06 05:04:24;;;;;;;1.90;1.00;;;;;;;9.70;97.16;100617.22;5017300;28;20207;-80
2023/01/06 05:06:50;;;;;;;1.00;1.00;;;;;;;9.72;96.94;100624.13;5017342;28;20247;-80
2023/01/06 05:09:17;;;;;;;3.70;1.00;;;;;;;9.81;97.23;100623.16;5021908;28;20735;-79
2023/01/06 05:11:43;;;;;;;1.30;1.17;;;;;;;9.86;97.01;100616.13;5018869;28;20226;-80
2023/01/06 05:14:11;;;;;;;1.63;0.80;;;;;;;9.88;96.80;100616.09;5017554;28;20207;-80
2023/01/06 05:16:38;;;;;;;1.20;1.00;;;;;;;9.75;95.78;100638.84;5016923;28;20619;-80
2023/01/06 05:19:04;;;;;;;1.57;1.20;;;;;;;9.79;96.51;100640.56;5016930;28;20222;-80
2023/01/06 05:21:31;;;;;;;1.83;1.00;;;;;;;9.78;96.61;100627.53;5016514;28;20215;-81
2023/01/06 05:23:57;;;;;;;1.37;0.87;;;;;;;9.79;96.19;100635.34;5017268;28;20210;-81
2023/01/06 05:26:25;;;;;;;2.37;1.00;;;;;;;9.79;95.23;100651.00;5017736;28;20230;-80
2023/01/06 05:28:52;;;;;;;2.30;0.90;;;;;;;9.83;95.63;100646.56;5017183;28;20372;-80
2023/01/06 05:31:20;;;;;;;1.17;0.80;;;;;;;9.85;95.79;100635.28;5016910;28;20215;-80
2023/01/06 05:33:46;;;;;;;1.83;1.00;;;;;;;9.80;96.11;100623.16;5018343;28;20630;-80
2023/01/06 05:36:15;;;;;;;2.07;0.97;;;;;;;9.81;95.90;100617.06;5016896;28;20203;-81
2023/01/06 05:38:41;;;;;;;1.63;1.50;;;;;;;9.73;94.94;100646.72;5017318;28;20357;-79
2023/01/06 05:41:08;;;;;;;1.60;1.03;;;;;;;9.79;94.86;100637.97;5022243;28;20257;-80
2023/01/06 05:43:36;;;;;;;2.07;0.93;;;;;;;9.84;93.83;100674.38;5017871;28;20226;-79
2023/01/06 05:46:05;;;;;;;0.60;0.60;;;;;;;9.82;93.67;100670.94;5016817;28;20226;-80
2023/01/06 05:48:33;;;;;;;1.67;0.80;;;;;;;9.81;92.97;100692.66;5016648;28;20693;-80
2023/01/06 05:51:02;;;;;;;1.20;0.80;;;;;;;9.88;93.49;100681.28;5017051;28;20266;-80
2023/01/06 05:53:31;;;;;;;6.00;1.00;;;;;;;9.81;94.13;100677.91;5016741;28;20210;-79
2023/01/06 05:55:59;;;;;;;1.43;0.70;;;;;;;9.87;93.74;100671.72;5016967;28;20233;-81
2023/01/06 05:58:26;;;;;;;1.57;0.87;;;;;;;9.87;92.27;100684.75;5016835;28;20211;-80
2023/01/06 06:00:52;;;;;;;1.40;0.80;;;;;;;9.93;92.70;100701.22;5016032;28;20261;-80
2023/01/06 06:03:18;;;;;;;0.80;0.70;;;;;;;9.83;91.13;100710.03;5016802;28;20260;-80
2023/01/06 06:05:46;;;;;;;2.77;0.60;;;;;;;9.90;90.91;100742.09;5016401;28;20231;-80
2023/01/06 06:08:13;;;;;;;1.30;0.60;;;;;;;9.89;90.86;100753.41;5016575;28;20206;-80
2023/01/06 06:10:39;;;;;;;1.30;0.80;;;;;;;9.89;90.64;100745.59;5021817;28;20288;-80
2023/01/06 06:13:05;;;;;;;6.50;1.20;;;;;;;9.90;90.66;100757.75;5016404;28;20199;-80
2023/01/06 06:15:32;;;;;;;1.07;0.77;;;;;;;9.98;90.81;100752.44;5016635;28;20210;-80
2023/01/06 06:17:58;;;;;;;0.63;0.60;;;;;;;10.03;90.82;100735.88;5016173;28;20264;-80
2023/01/06 06:20:24;;;;;;;2.30;0.80;;;;;;;10.04;91.21;100728.91;5016620;28;20239;-80
2023/01/06 06:22:52;;;;;;;1.93;0.60;;;;;;;9.80;90.15;100740.50;5016301;28;20207;-80
2023/01/06 06:25:19;;;;;;;0.80;0.60;;;;;;;9.90;89.94;100755.16;5016204;28;20768;-80
2023/01/06 06:27:45;;;;;;;1.00;0.57;;;;;;;10.02;90.43;100736.75;5016280;28;20223;-80
2023/01/06 06:30:12;;;;;;;1.93;0.60;;;;;;;10.08;90.84;100714.94;5016043;28;20233;-81
2023/01/06 06:32:38;;;;;;;1.97;0.60;;;;;;;10.11;90.66;100717.53;5016288;28;20211;-79
2023/01/06 06:35:06;;;;;;;1.70;0.60;;;;;;;10.11;91.10;100723.59;5016470;28;20207;-80
2023/01/06 06:37:32;;;;;;;2.10;1.00;;;;;;;10.16;90.87;100720.06;5016217;28;20246;-80
2023/01/06 06:40:00;;;;;;;1.07;0.60;;;;;;;10.14;89.58;100738.34;5021860;28;20218;-79
2023/01/06 06:42:26;;;;;;;0.60;0.60;;;;;;;10.21;89.32;100742.63;5015889;28;20261;-80
2023/01/06 06:44:52;;;;;;;1.63;0.60;;;;;;;10.14;89.85;100731.38;5015835;28;20206;-80
2023/01/06 06:47:19;;;;;;;1.53;0.80;;;;;;;10.12;89.40;100724.47;5015696;28;20673;-80
2023/01/06 06:49:45;;;;;;;0.90;0.60;;;;;;;10.12;89.23;100727.06;5015695;28;20226;-80
2023/01/06 06:52:11;;;;;;;1.03;0.80;;;;;;;10.06;89.31;100733.22;5015855;28;20273;-80
2023/01/06 06:54:38;;;;;;;1.77;0.70;;;;;;;10.10;89.42;100734.03;5016754;28;20230;-81
2023/01/06 06:57:05;;;;;;;2.70;0.70;;;;;;;10.04;88.17;100739.34;5016753;28;20627;-80
2023/01/06 06:59:32;;;;;;;0.90;0.80;;;;;;;9.94;87.06;100757.69;5015518;28;20234;-81
2023/01/06 07:01:58;;;;;;;0.87;0.70;;;;;;;10.04;87.40;100763.66;5015557;28;20211;-80
2023/01/06 07:04:24;;;;;;;1.03;1.00;;;;;;;10.09;87.19;100763.63;5016588;28;20577;-80
2023/01/06 07:06:50;;;;;;;1.63;1.37;;;;;;;10.05;86.98;100769.75;5015907;28;20712;-80
2023/01/06 07:09:17;;;;;;;1.07;0.83;;;;;;;10.06;86.69;100780.16;5019809;28;20740;-81
2023/01/06 07:11:43;;;;;;;3.03;0.80;;;;;;;10.10;86.91;100783.59;5016345;28;20199;-81
2023/01/06 07:14:11;;;;;;;2.20;1.47;;;;;;;9.97;85.05;100814.19;5015417;28;20281;-81
2023/01/06 07:16:37;;;;;;;1.33;1.00;;;;;;;10.07;85.73;100807.13;5014994;28;20582;-80
2023/01/06 07:19:03;;;;;;;1.83;1.27;;;;;;;10.03;85.70;100802.81;5016175;28;20227;-80
2023/01/06 07:21:30;;;;;;;1.90;1.70;;;;;;;10.05;85.73;100790.59;5014793;28;20350;-80
2023/01/06 07:23:56;;;;;;;1.90;1.10;;;;;;;10.09;85.35;100793.19;5016036;28;20211;-80
2023/01/06 07:26:22;;;;;;;2.10;1.00;;;;;;;10.11;84.80;100804.47;5016760;28;20245;-79
2023/01/06 07:28:49;;;;;;;1.87;0.97;;;;;;;10.10;84.65;100807.06;5016458;28;20207;-81
2023/01/06 07:31:16;;;;;;;3.43;0.80;;;;;;;10.05;84.49;100809.75;5015401;28;20210;-80
2023/01/06 07:33:43;;;;;;;2.40;1.20;;;;;;;10.01;83.61;100823.69;5015252;28;20217;-79
2023/01/06 07:36:09;;;;;;;2.90;0.90;;;;;;;10.04;83.20;100836.69;5015891;28;20203;-80
2023/01/06 07:38:35;;;;;;;1.30;0.90;;;;;;;9.99;82.56;100858.47;5014950;28;20214;-80
2023/01/06 07:41:02;;;;;;;1.30;1.00;;;;;;;10.08;83.11;100861.88;5020287;28;20867;-80
2023/01/06 07:43:28;;;;;;;1.30;0.83;;;;;;;10.10;82.87;100867.06;5000795;28;20207;-80
2023/01/06 07:45:55;;;;;;;1.93;0.60;;;;;;;9.99;82.67;100879.34;4995287;28;20211;-78
2023/01/06 07:48:23;;;;;;;2.47;1.07;;;;;;;10.08;83.14;100858.41;4998261;28;20669;-79
2023/01/06 07:50:49;;;;;;;1.73;0.70;;;;;;;10.12;83.38;100855.72;5014130;28;20226;-79
2023/01/06 07:53:15;;;;;;;2.40;0.83;;;;;;;10.16;82.88;100863.53;5014422;28;20207;-79
2023/01/06 07:55:42;;;;;;;2.10;1.07;;;;;;;10.05;82.63;100864.53;5014101;28;20670;-79
2023/01/06 07:58:09;;;;;;;1.17;0.70;;;;;;;10.08;82.36;100863.63;5013128;28;20225;-79
2023/01/06 08:00:36;;;;;;;1.23;0.90;;;;;;;10.05;81.89;100888.00;5012955;28;20276;-79
2023/01/06 08:03:04;;;;;;;1.53;0.90;;;;;;;10.09;82.07;100894.06;5012863;28;20257;-80
2023/01/06 08:05:32;;;;;;;1.50;0.80;;;;;;;10.16;82.40;100872.22;5013580;28;20209;-80
2023/01/06 08:07:58;;;;;;;5.13;0.90;;;;;;;10.15;82.17;100873.13;5012535;28;20647;-80
2023/01/06 08:10:24;;;;;;;1.57;0.87;;;;;;;10.07;81.53;100882.78;5018508;28;20239;-79
2023/01/06 08:12:51;;;;;;;0.70;0.70;;;;;;;10.19;81.36;100886.97;5013727;28;20204;-79
2023/01/06 08:15:17;;;;;;;2.00;0.83;;;;;;;10.15;80.24;100899.22;5014325;28;20267;-79
2023/01/06 08:17:44;;;;;;;2.17;1.03;;;;;;;10.19;80.87;100898.28;5013061;28;20744;-79
2023/01/06 08:20:10;;;;;;;1.37;1.00;;;;;;;10.24;81.43;100900.84;5012522;28;20227;-79
2023/01/06 08:22:38;;;;;;;2.80;0.83;;;;;;;10.16;80.42;100913.09;5012746;28;20269;-80
2023/01/06 08:25:05;;;;;;;0.73;0.63;;;;;;;10.15;80.13;100922.69;5013493;28;20215;-79
2023/01/06 08:27:31;;;;;;;2.90;1.03;;;;;;;10.18;80.86;100927.00;5013950;28;20284;-79
2023/01/06 08:29:57;;;;;;;0.80;0.80;;;;;;;10.26;80.78;100906.91;5013423;28;20277;-79
2023/01/06 08:32:24;;;;;;;2.10;0.73;;;;;;;10.12;80.36;100923.56;5013348;28;20265;-80
2023/01/06 08:34:50;;;;;;;1.77;1.03;;;;;;;10.15;80.85;100909.63;5014504;28;20257;-81
2023/01/06 08:37:16;;;;;;;1.63;1.00;;;;;;;10.20;81.63;100897.41;5014057;28;20253;-80
2023/01/06 08:39:44;;;;;;;3.03;1.93;;;;;;;10.25;81.39;100884.31;5019375;28;20238;-80
2023/01/06 08:42:11;;;;;;;1.03;0.93;;;;;;;10.27;80.75;100890.41;5015579;28;20203;-80
2023/01/06 08:44:37;;;;;;;2.50;0.80;;;;;;;10.34;80.58;100889.47;5018490;28;20204;-80
2023/01/06 08:47:04;;;;;;;1.30;1.00;;;;;;;10.39;80.05;100911.16;5019765;28;20230;-80
2023/01/06 08:49:31;;;;;;;1.60;1.43;;;;;;;10.33;79.46;100922.53;5019371;28;20569;-80
2023/01/06 08:51:57;;;;;;;2.10;0.83;;;;;;;10.38;79.86;100924.22;5017013;28;20214;-80
2023/01/06 08:54:23;;;;;;;1.30;0.87;;;;;;;10.51;80.68;100913.63;5017036;28;20208;-80
2023/01/06 08:56:51;;;;;;;0.83;0.67;;;;;;;10.52;79.87;100922.31;5017022;28;20281;-79
2023/01/06 08:59:17;;;;;;;3.03;0.97;;;;;;;10.62;80.16;100910.88;5016921;28;20231;-80
2023/01/06 09:01:44;;;;;;;0.70;0.53;;;;;;;10.56;79.76;100923.16;5016125;28;20222;-77
2023/01/06 09:04:12;;;;;;;1.80;0.80;;;;;;;10.56;80.69;100900.53;5017420;28;20661;-79
2023/01/06 09:06:40;;;;;;;0.90;0.70;;;;;;;10.58;80.54;100913.56;5015904;28;20214;-80
2023/01/06 09:09:07;;;;;;;1.63;0.90;;;;;;;10.70;80.85;100884.69;5019825;28;20238;-80
2023/01/06 09:11:34;;;;;;;1.53;0.80;;;;;;;10.61;80.07;100875.25;5018740;28;20570;-79
2023/01/06 09:14:01;;;;;;;0.97;0.67;;;;;;;10.76;80.95;100871.56;5016720;28;20211;-80
2023/01/06 09:16:28;;;;;;;0.80;0.80;;;;;;;10.76;79.97;100892.44;5016569;28;20237;-79
2023/01/06 09:18:54;;;;;;;1.43;0.73;;;;;;;10.91;80.92;100870.50;5015878;28;20242;-81
2023/01/06 09:21:22;;;;;;;1.50;0.70;;;;;;;10.92;80.04;100896.63;5015348;28;20207;-79
2023/01/06 09:23:49;;;;;;;4.00;0.60;;;;;;;10.80;79.53;100904.63;5016758;28;20202;-79
2023/01/06 09:26:17;;;;;;;1.03;0.70;;;;;;;10.96;80.04;100904.41;5016278;28;20207;-80
2023/01/06 09:28:44;;;;;;;1.03;0.70;;;;;;;10.97;79.79;100906.13;5016368;28;20583;-79
2023/01/06 09:31:11;;;;;;;0.90;0.60;;;;;;;10.97;79.70;100920.06;5015334;28;20572;-81
2023/01/06 09:33:38;;;;;;;1.80;0.80;;;;;;;10.92;79.84;100917.50;5016093;28;20199;-80
2023/01/06 09:36:05;;;;;;;0.57;0.50;;;;;;;10.99;80.45;100902.63;5016168;28;20207;-78
2023/01/06 09:38:32;;;;;;;0.87;0.70;;;;;;;10.91;80.85;100888.78;5015961;28;20261;-80
2023/01/06 09:41:13;;;;;;;0.70;0.50;;;;;;;10.83;80.96;100875.84;5021792;28;20298;-79
2023/01/06 09:43:49;;;;;;;0.70;0.60;;;;;;;10.75;80.94;100854.19;5016523;28;20224;-79
2023/01/06 09:46:19;;;;;;;0.60;0.60;;;;;;;10.78;82.09;100856.72;5016273;28;20210;-81
2023/01/06 09:48:55;;;;;;;1.43;0.80;;;;;;;10.72;82.07;100836.81;5016454;28;20258;-78
2023/01/06 09:51:25;;;;;;;1.00;0.90;;;;;;;10.61;83.63;100812.59;5015351;28;20204;-80
2023/01/06 09:53:57;;;;;;;0.57;0.57;;;;;;;10.73;84.49;100780.22;5015445;28;20202;-79
2023/01/06 09:56:24;;;;;;;0.70;0.50;;;;;;;10.69;84.79;100747.22;5016095;28;20222;-80
2023/01/06 09:58:58;;;;;;;1.40;0.77;;;;;;;10.65;85.75;100729.88;5016102;28;20214;-80
2023/01/06 10:01:30;;;;;;;1.30;0.60;;;;;;;10.71;85.96;100704.53;5016237;28;20242;-79
2023/01/06 10:03:59;;;;;;;0.93;0.50;;;;;;;10.47;86.94;100690.09;5015711;28;20634;-79
2023/01/06 10:06:31;;;;;;;0.67;0.50;;;;;;;10.64;86.98;100657.66;5015720;28;20207;-80
2023/01/06 10:09:08;;;;;;;0.90;0.50;;;;;;;10.69;86.77;100663.69;5018286;28;20644;-80
2023/01/06 10:11:48;;;;;;;0.40;0.40;;;;;;;10.76;87.35;100657.44;5018437;28;20202;-80
2023/01/06 10:14:23;;;;;;;0.93;0.60;;;;;;;10.61;88.14;100639.44;5016277;28;20237;-80
2023/01/06 10:17:08;;;;;;;0.60;0.60;;;;;;;10.67;88.19;100621.06;5017008;28;20245;-80
2023/01/06 10:19:52;;;;;;;0.77;0.60;;;;;;;10.59;89.04;100607.28;5019010;28;20231;-81
2023/01/06 10:22:28;;;;;;;0.90;0.60;;;;;;;10.69;89.45;100583.59;5018332;28;20207;-80
2023/01/06 10:25:01;;;;;;;0.60;0.60;;;;;;;10.49;90.15;100589.16;5017925;28;20210;-79
2023/01/06 10:27:34;;;;;;;2.67;0.70;;;;;;;10.55;89.69;100582.97;5018168;28;20226;-79
2023/01/06 10:30:03;;;;;;;1.20;0.90;;;;;;;10.57;90.08;100564.69;5017172;28;20259;-80
2023/01/06 10:32:34;;;;;;;1.67;0.70;;;;;;;10.61;90.09;100575.03;5018163;28;20210;-80
2023/01/06 10:35:01;;;;;;;3.77;0.90;;;;;;;10.48;90.16;100582.19;5017728;28;20210;-80
2023/01/06 10:37:34;;;;;;;0.90;0.90;;;;;;;10.46;90.88;100570.91;5017252;28;20207;-79
2023/01/06 10:40:13;;;;;;;0.70;0.70;;;;;;;10.48;90.87;100547.41;5022895;28;20253;-80
2023/01/06 10:42:59;;;;;;;2.70;1.00;;;;;;;10.57;91.51;100534.22;5017208;28;20230;-80
2023/01/06 10:45:29;;;;;;;1.07;0.60;;;;;;;10.51;90.61;100542.16;5016717;28;20211;-79
2023/01/06 10:47:59;;;;;;;1.23;0.70;;;;;;;10.53;90.71;100548.22;5016952;28;20230;-79
2023/01/06 10:50:26;;;;;;;1.67;1.03;;;;;;;10.53;91.10;100537.78;5016534;28;20234;-80
2023/01/06 10:52:53;;;;;;;1.70;0.83;;;;;;;10.60;91.61;100541.97;5017678;28;20211;-79
2023/01/06 10:55:32;;;;;;;2.60;0.73;;;;;;;10.52;92.02;100530.81;5016858;28;20759;-80
2023/01/06 10:58:05;;;;;;;1.10;0.80;;;;;;;10.50;92.78;100511.72;5016713;28;20250;-79
2023/01/06 11:00:32;;;;;;;1.03;0.70;;;;;;;10.49;92.78;100512.63;5016460;28;20235;-80
2023/01/06 11:03:05;;;;;;;1.13;0.63;;;;;;;10.44;92.21;100523.09;5015505;28;20671;-80
2023/01/06 11:05:35;;;;;;;0.80;0.80;;;;;;;10.50;92.54;100509.09;5015165;28;20689;-80
2023/01/06 11:08:06;;;;;;;0.70;0.70;;;;;;;10.48;93.88;100508.25;5015435;28;20235;-80
2023/01/06 11:10:37;;;;;;;0.73;0.73;;;;;;;10.36;95.47;100472.81;5022531;28;20688;-79
2023/01/06 11:13:06;;;;;;;0.70;0.70;;;;;;;10.31;97.40;100443.34;5017546;28;20576;-80
2023/01/06 11:15:39;;;;;;;1.03;0.80;;;;;;;10.00;98.95;100401.25;5018009;28;20218;-80
2023/01/06 11:18:19;;;;;;;2.87;1.00;;;;;;;10.18;99.88;100363.53;5016700;28;20198;-80
2023/01/06 11:20:46;;;;;;;1.00;0.90;;;;;;;9.96;100.00;100356.09;5016806;28;20233;-80
2023/01/06 11:23:20;;;;;;;1.30;0.87;;;;;;;10.08;100.00;100344.59;5016697;28;20207;-80
2023/01/06 11:26:04;;;;;;;1.17;1.07;;;;;;;10.23;100.00;100357.34;5017470;28;20213;-80
2023/01/06 11:28:31;;;;;;;1.63;0.90;;;;;;;10.30;99.76;100358.97;5017199;28;20222;-81
2023/01/06 11:31:02;;;;;;;0.90;0.90;;;;;;;10.29;98.91;100388.53;5017352;28;20242;-80
2023/01/06 11:33:32;;;;;;;1.10;1.10;;;;;;;10.21;99.89;100392.16;5015919;28;20264;-81
2023/01/06 11:36:05;;;;;;;1.83;1.20;;;;;;;10.32;100.00;100385.91;5017022;28;20743;-81
2023/01/06 11:38:32;;;;;;;1.30;1.20;;;;;;;10.21;100.00;100360.84;5016044;28;20207;-80